Algoma Discovery — CFK9796 — position and weather

sailwx.info

Track history (hours):
 
Tides and Currents Weather Stations Pressure Air Temp Water Temp Dewpoint Dewpoint Depression Visibility Wind Speed Wind Dir Waves Ship Positions

Algoma Discovery

Last reported at 2018-May-23 17:31 UTC. Time now 2018-May-24 21:12 UTC.
Position N 47°00' W 091°38'.

Length 223 m; draft 8.2 m.

Type: Cargo ship. MMSI: 316018477.

Date/timePositionNaut miles runAvg speedWind from/ knotsBaromVisibWave heightAir tempDewpointWater temp
2018-May-23 17:31N 47°00' W 091°38'010.2
2018-May-23 17:30N 47°00' W 091°38'1 1.0
2018-May-23 16:03N 47°01' W 091°40'0 0.0
2018-May-23 15:48N 47°01' W 091°40'0 0.0
2018-May-23 11:09N 47°01' W 091°40'0 0.0
2018-May-23 10:57N 47°01' W 091°40'0 0.0
2018-May-23 10:27N 47°01' W 091°40'0 0.0
2018-May-23 09:57N 47°01' W 091°40'0 0.0
2018-May-23 09:27N 47°01' W 091°40'0 0.0
2018-May-23 08:54N 47°01' W 091°40'0 0.0
2018-May-23 08:27N 47°01' W 091°40'0 0.0
2018-May-23 08:00N 47°01' W 091°40'0 0.0
2018-May-23 07:30N 47°01' W 091°40'0 0.0
2018-May-23 06:57N 47°01' W 091°40'0 0.0
2018-May-23 06:30N 47°01' W 091°40'0 0.0
2018-May-23 04:48N 47°01' W 091°40'0 0.0
2018-May-23 04:27N 47°01' W 091°40'0 0.1
2018-May-23 04:00N 47°01' W 091°40'1 0.9
2018-May-23 03:18N 47°00' W 091°40'1 2.7
2018-May-23 03:00N 46°59' W 091°40'0 0.1
2018-May-23 02:18N 46°59' W 091°40'0 0.2
2018-May-23 02:00N 46°59' W 091°40'0 0.1
2018-May-23 01:30N 46°59' W 091°40'0 0.0
2018-May-23 00:48N 46°59' W 091°40'0 0.1
2018-May-23 00:24N 46°59' W 091°40'0 0.1
2018-May-23 00:00N 46°59' W 091°40'0 0.1
2018-May-22 23:28N 46°59' W 091°40'0 0.1
2018-May-22 23:00N 46°59' W 091°40'0 0.1
2018-May-22 22:31N 46°59' W 091°40'0 0.5
2018-May-22 22:00N 46°59' W 091°40'1 2.8
2018-May-22 21:31N 47°01' W 091°40'0 0.1
2018-May-22 21:01N 47°01' W 091°40'0 0.4
2018-May-22 20:31N 47°01' W 091°40'1 2.0
2018-May-22 20:01N 46°60' W 091°39'23112.8
2018-May-22 02:00N 47°06' W 086°00'124 9.7 190 / 101011.010.8 9.0
2018-May-21 13:16N 45°46' W 083°43'414.0
2018-May-21 13:00N 45°43' W 083°40'714.0
2018-May-21 12:30N 45°37' W 083°34'914.0
2018-May-21 11:53N 45°30' W 083°27'513.9
2018-May-21 11:30N 45°25' W 083°23'12713.4
2018-May-21 02:00N 43°24' W 082°30'   010 / 51006.510.8 9.0
2018-May-18 02:55N 45°13' W 074°02'5 8.6
2018-May-18 02:17N 45°17' W 073°56'1 4.7
2018-May-18 02:01N 45°18' W 073°56'0 0.7
2018-May-18 01:31N 45°19' W 073°55'1 1.1
2018-May-18 01:01N 45°19' W 073°55'1 1.5
2018-May-18 00:30N 45°20' W 073°55'3 6.6
2018-May-18 00:00N 45°21' W 073°51'510.7
2018-May-17 23:30N 45°24' W 073°44'4 6.8
2018-May-17 22:58N 45°24' W 073°39'2 5.2
2018-May-17 22:30N 45°24' W 073°36'1 2.5
2018-May-17 22:00N 45°24' W 073°34'0 0.1
2018-May-17 21:28N 45°24' W 073°34'0 0.0
2018-May-17 21:01N 45°24' W 073°34'1 1.4
2018-May-17 20:31N 45°24' W 073°33'2 4.3
2018-May-17 20:00N 45°26' W 073°30'3 5.8
2018-May-17 19:30N 45°28' W 073°30'1 2.6
2018-May-17 19:01N 45°30' W 073°31'0 0.0
2018-May-17 18:30N 45°30' W 073°31'1 1.2
2018-May-17 18:00N 45°30' W 073°31'3 3.1
2018-May-17 16:55N 45°34' W 073°31'4 7.3
2018-May-17 16:25N 45°37' W 073°30'4 8.9
2018-May-17 16:00N 45°40' W 073°27'5 9.9
2018-May-17 15:30N 45°45' W 073°24'510.3
2018-May-17 15:00N 45°49' W 073°19'2 3.9
2018-May-17 14:29N 45°50' W 073°17'0 0.0
2018-May-17 13:59N 45°50' W 073°17'0 0.0
2018-May-17 13:29N 45°50' W 073°17'0 0.0
2018-May-17 12:59N 45°50' W 073°17'0 0.0
2018-May-17 12:26N 45°50' W 073°17'0 0.0
2018-May-17 11:59N 45°50' W 073°17'0 0.0
2018-May-17 11:26N 45°50' W 073°17'0 0.0
2018-May-17 10:59N 45°50' W 073°17'0 0.0
2018-May-17 10:20N 45°50' W 073°17'0 0.0
2018-May-17 09:50N 45°50' W 073°17'0 0.0
2018-May-17 09:29N 45°50' W 073°17'0 0.0
2018-May-17 08:53N 45°50' W 073°17'0 0.0
2018-May-17 08:20N 45°50' W 073°17'0 0.0
2018-May-17 07:59N 45°50' W 073°17'0 0.0
2018-May-17 07:29N 45°50' W 073°17'0 0.0
2018-May-17 06:56N 45°50' W 073°17'0 0.0
2018-May-17 06:29N 45°50' W 073°17'0 0.0
2018-May-17 05:56N 45°50' W 073°17'0 0.0
2018-May-17 05:26N 45°50' W 073°17'0 0.0
2018-May-17 04:56N 45°50' W 073°17'0 0.0
2018-May-17 04:26N 45°50' W 073°17'0 0.0
2018-May-17 03:56N 45°50' W 073°17'0 0.0
2018-May-17 03:29N 45°50' W 073°17'0 0.0
2018-May-17 02:56N 45°50' W 073°17'0 0.0
2018-May-17 02:29N 45°50' W 073°17'0 0.0
2018-May-17 01:59N 45°50' W 073°17'0 0.0
2018-May-17 01:29N 45°50' W 073°17'0 0.0
2018-May-17 00:56N 45°50' W 073°17'0 0.0
2018-May-17 00:29N 45°50' W 073°17'0 0.0
2018-May-16 23:59N 45°50' W 073°17'0 0.0
2018-May-16 23:29N 45°50' W 073°17'0 0.0
2018-May-16 22:59N 45°50' W 073°17'0 0.0
2018-May-16 22:29N 45°50' W 073°17'0 0.0
2018-May-16 21:59N 45°50' W 073°17'0 0.0
2018-May-16 21:29N 45°50' W 073°17'0 0.0
2018-May-16 20:59N 45°50' W 073°17'0 0.0
2018-May-16 20:26N 45°50' W 073°17'0 0.0
2018-May-16 19:59N 45°50' W 073°17'0 0.0
2018-May-16 19:23N 45°50' W 073°17'0 0.0
2018-May-16 18:56N 45°50' W 073°17'0 0.0
2018-May-16 18:29N 45°50' W 073°17'0 0.0
2018-May-16 17:56N 45°50' W 073°17'0 0.0
2018-May-16 17:29N 45°50' W 073°17'0 0.0
2018-May-16 16:59N 45°50' W 073°17'0 0.0
2018-May-16 16:26N 45°50' W 073°17'0 0.0
2018-May-16 15:59N 45°50' W 073°17'0 0.0
2018-May-16 15:29N 45°50' W 073°17'0 0.0
2018-May-16 14:59N 45°50' W 073°17'0 0.0
2018-May-16 14:26N 45°50' W 073°17'0 0.0
2018-May-16 13:59N 45°50' W 073°17'0 0.0
2018-May-16 13:29N 45°50' W 073°17'0 0.0
2018-May-16 12:59N 45°50' W 073°17'0 0.0
2018-May-16 12:29N 45°50' W 073°17'0 0.0
2018-May-16 11:56N 45°50' W 073°17'0 0.0
2018-May-16 11:29N 45°50' W 073°17'0 0.0
2018-May-16 10:59N 45°50' W 073°17'0 0.0
2018-May-16 10:26N 45°50' W 073°17'0 0.0
2018-May-16 09:59N 45°50' W 073°17'0 0.0
2018-May-16 09:26N 45°50' W 073°17'0 0.0
2018-May-16 08:47N 45°50' W 073°17'0 0.0
2018-May-16 08:29N 45°50' W 073°17'0 0.0
2018-May-16 07:59N 45°50' W 073°17'0 0.0
2018-May-16 07:14N 45°50' W 073°17'0 0.0
2018-May-16 06:59N 45°50' W 073°17'0 0.0
2018-May-16 06:29N 45°50' W 073°17'0 0.0
2018-May-16 05:59N 45°50' W 073°17'0 0.0
2018-May-16 05:26N 45°50' W 073°17'0 0.0
2018-May-16 04:59N 45°50' W 073°17'0 0.0
2018-May-16 04:26N 45°50' W 073°17'0 0.0
2018-May-16 03:59N 45°50' W 073°17'0 0.0
2018-May-16 03:29N 45°50' W 073°17'0 0.0
2018-May-16 02:59N 45°50' W 073°17'0 0.0
2018-May-16 02:29N 45°50' W 073°17'0 0.0
2018-May-16 01:59N 45°50' W 073°17'0 0.0
2018-May-16 01:23N 45°50' W 073°17'0 0.0
2018-May-16 00:59N 45°50' W 073°17'0 0.0
2018-May-16 00:26N 45°50' W 073°17'0 0.0
2018-May-15 23:59N 45°50' W 073°17'0 0.0
2018-May-15 23:29N 45°50' W 073°17'0 0.0
2018-May-15 22:56N 45°50' W 073°17'0 0.0
2018-May-15 22:26N 45°50' W 073°17'0 0.0
2018-May-15 21:59N 45°50' W 073°17'0 0.0
2018-May-15 21:29N 45°50' W 073°17'0 0.0
2018-May-15 20:50N 45°50' W 073°17'0 0.0
2018-May-15 20:29N 45°50' W 073°17'0 0.0
2018-May-15 19:53N 45°50' W 073°17'0 0.0
2018-May-15 19:26N 45°50' W 073°17'0 0.0
2018-May-15 18:59N 45°50' W 073°17'0 0.0
2018-May-15 18:29N 45°50' W 073°17'0 0.0
2018-May-15 17:56N 45°50' W 073°17'0 0.0
2018-May-15 17:29N 45°50' W 073°17'0 0.0
2018-May-15 16:59N 45°50' W 073°17'0 0.0
2018-May-15 16:29N 45°50' W 073°17'0 0.0
2018-May-15 15:50N 45°50' W 073°17'0 0.0
2018-May-15 15:29N 45°50' W 073°17'0 0.0
2018-May-15 14:56N 45°50' W 073°17'0 0.0
2018-May-15 14:28N 45°50' W 073°17'0 0.0
2018-May-15 13:33N 45°50' W 073°17'0 0.1
2018-May-15 13:30N 45°50' W 073°17'0 0.0
2018-May-15 12:59N 45°50' W 073°17'0 0.0
2018-May-15 12:21N 45°50' W 073°17'0 0.0
2018-May-15 12:00N 45°50' W 073°17'0 0.0
2018-May-15 11:30N 45°50' W 073°17'0 0.0
2018-May-15 10:53N 45°50' W 073°17'0 0.0
2018-May-15 10:30N 45°50' W 073°17'0 0.0
2018-May-15 10:00N 45°50' W 073°17'0 0.0
2018-May-15 09:21N 45°50' W 073°17'0 0.0
2018-May-15 09:00N 45°50' W 073°17'0 0.0
2018-May-15 08:30N 45°50' W 073°17'0 0.6
2018-May-15 08:00N 45°50' W 073°17'2 4.0
2018-May-15 07:30N 45°52' W 073°16'4 8.6
2018-May-15 07:00N 45°56' W 073°13'4 9.0
2018-May-15 06:30N 46°00' W 073°11'4 8.5
2018-May-15 06:00N 46°03' W 073°07'90 8.8
2018-May-14 19:43N 46°48' W 071°13'2 9.0
2018-May-14 19:30N 46°49' W 071°11'  
Track history (hours):
 
Tides and Currents Weather Stations Pressure Air Temp Water Temp Dewpoint Dewpoint Depression Visibility Wind Speed Wind Dir Waves Ship Positions

Algoma Discovery

Last reported at 2018-May-23 17:31 UTC. Time now 2018-May-24 21:12 UTC.
Position N 47°00' W 091°38'.

Length 223 m; draft 8.2 m.

Type: Cargo ship. MMSI: 316018477.

Date/timePositionNaut miles runAvg speedWind from/ knotsBaromVisibWave heightAir tempDewpointWater temp
2018-May-23 17:31N 47°00' W 091°38'010.2
2018-May-23 17:30N 47°00' W 091°38'1 1.0
2018-May-23 16:03N 47°01' W 091°40'0 0.0
2018-May-23 15:48N 47°01' W 091°40'0 0.0
2018-May-23 11:09N 47°01' W 091°40'0 0.0
2018-May-23 10:57N 47°01' W 091°40'0 0.0
2018-May-23 10:27N 47°01' W 091°40'0 0.0
2018-May-23 09:57N 47°01' W 091°40'0 0.0
2018-May-23 09:27N 47°01' W 091°40'0 0.0
2018-May-23 08:54N 47°01' W 091°40'0 0.0
2018-May-23 08:27N 47°01' W 091°40'0 0.0
2018-May-23 08:00N 47°01' W 091°40'0 0.0
2018-May-23 07:30N 47°01' W 091°40'0 0.0
2018-May-23 06:57N 47°01' W 091°40'0 0.0
2018-May-23 06:30N 47°01' W 091°40'0 0.0
2018-May-23 04:48N 47°01' W 091°40'0 0.0
2018-May-23 04:27N 47°01' W 091°40'0 0.1
2018-May-23 04:00N 47°01' W 091°40'1 0.9
2018-May-23 03:18N 47°00' W 091°40'1 2.7
2018-May-23 03:00N 46°59' W 091°40'0 0.1
2018-May-23 02:18N 46°59' W 091°40'0 0.2
2018-May-23 02:00N 46°59' W 091°40'0 0.1
2018-May-23 01:30N 46°59' W 091°40'0 0.0
2018-May-23 00:48N 46°59' W 091°40'0 0.1
2018-May-23 00:24N 46°59' W 091°40'0 0.1
2018-May-23 00:00N 46°59' W 091°40'0 0.1
2018-May-22 23:28N 46°59' W 091°40'0 0.1
2018-May-22 23:00N 46°59' W 091°40'0 0.1
2018-May-22 22:31N 46°59' W 091°40'0 0.5
2018-May-22 22:00N 46°59' W 091°40'1 2.8
2018-May-22 21:31N 47°01' W 091°40'0 0.1
2018-May-22 21:01N 47°01' W 091°40'0 0.4
2018-May-22 20:31N 47°01' W 091°40'1 2.0
2018-May-22 20:01N 46°60' W 091°39'23112.8
2018-May-22 02:00N 47°06' W 086°00'124 9.7 190 / 101011.010.8 9.0
2018-May-21 13:16N 45°46' W 083°43'414.0
2018-May-21 13:00N 45°43' W 083°40'714.0
2018-May-21 12:30N 45°37' W 083°34'914.0
2018-May-21 11:53N 45°30' W 083°27'513.9
2018-May-21 11:30N 45°25' W 083°23'12713.4
2018-May-21 02:00N 43°24' W 082°30'   010 / 51006.510.8 9.0
2018-May-18 02:55N 45°13' W 074°02'5 8.6
2018-May-18 02:17N 45°17' W 073°56'1 4.7
2018-May-18 02:01N 45°18' W 073°56'0 0.7
2018-May-18 01:31N 45°19' W 073°55'1 1.1
2018-May-18 01:01N 45°19' W 073°55'1 1.5
2018-May-18 00:30N 45°20' W 073°55'3 6.6
2018-May-18 00:00N 45°21' W 073°51'510.7
2018-May-17 23:30N 45°24' W 073°44'4 6.8
2018-May-17 22:58N 45°24' W 073°39'2 5.2
2018-May-17 22:30N 45°24' W 073°36'1 2.5
2018-May-17 22:00N 45°24' W 073°34'0 0.1
2018-May-17 21:28N 45°24' W 073°34'0 0.0
2018-May-17 21:01N 45°24' W 073°34'1 1.4
2018-May-17 20:31N 45°24' W 073°33'2 4.3
2018-May-17 20:00N 45°26' W 073°30'3 5.8
2018-May-17 19:30N 45°28' W 073°30'1 2.6
2018-May-17 19:01N 45°30' W 073°31'0 0.0
2018-May-17 18:30N 45°30' W 073°31'1 1.2
2018-May-17 18:00N 45°30' W 073°31'3 3.1
2018-May-17 16:55N 45°34' W 073°31'4 7.3
2018-May-17 16:25N 45°37' W 073°30'4 8.9
2018-May-17 16:00N 45°40' W 073°27'5 9.9
2018-May-17 15:30N 45°45' W 073°24'510.3
2018-May-17 15:00N 45°49' W 073°19'2 3.9
2018-May-17 14:29N 45°50' W 073°17'0 0.0
2018-May-17 13:59N 45°50' W 073°17'0 0.0
2018-May-17 13:29N 45°50' W 073°17'0 0.0
2018-May-17 12:59N 45°50' W 073°17'0 0.0
2018-May-17 12:26N 45°50' W 073°17'0 0.0
2018-May-17 11:59N 45°50' W 073°17'0 0.0
2018-May-17 11:26N 45°50' W 073°17'0 0.0
2018-May-17 10:59N 45°50' W 073°17'0 0.0
2018-May-17 10:20N 45°50' W 073°17'0 0.0
2018-May-17 09:50N 45°50' W 073°17'0 0.0
2018-May-17 09:29N 45°50' W 073°17'0 0.0
2018-May-17 08:53N 45°50' W 073°17'0 0.0
2018-May-17 08:20N 45°50' W 073°17'0 0.0
2018-May-17 07:59N 45°50' W 073°17'0 0.0
2018-May-17 07:29N 45°50' W 073°17'0 0.0
2018-May-17 06:56N 45°50' W 073°17'0 0.0
2018-May-17 06:29N 45°50' W 073°17'0 0.0
2018-May-17 05:56N 45°50' W 073°17'0 0.0
2018-May-17 05:26N 45°50' W 073°17'0 0.0
2018-May-17 04:56N 45°50' W 073°17'0 0.0
2018-May-17 04:26N 45°50' W 073°17'0 0.0
2018-May-17 03:56N 45°50' W 073°17'0 0.0
2018-May-17 03:29N 45°50' W 073°17'0 0.0
2018-May-17 02:56N 45°50' W 073°17'0 0.0
2018-May-17 02:29N 45°50' W 073°17'0 0.0
2018-May-17 01:59N 45°50' W 073°17'0 0.0
2018-May-17 01:29N 45°50' W 073°17'0 0.0
2018-May-17 00:56N 45°50' W 073°17'0 0.0
2018-May-17 00:29N 45°50' W 073°17'0 0.0
2018-May-16 23:59N 45°50' W 073°17'0 0.0
2018-May-16 23:29N 45°50' W 073°17'0 0.0
2018-May-16 22:59N 45°50' W 073°17'0 0.0
2018-May-16 22:29N 45°50' W 073°17'0 0.0
2018-May-16 21:59N 45°50' W 073°17'0 0.0
2018-May-16 21:29N 45°50' W 073°17'0 0.0
2018-May-16 20:59N 45°50' W 073°17'0 0.0
2018-May-16 20:26N 45°50' W 073°17'0 0.0
2018-May-16 19:59N 45°50' W 073°17'0 0.0
2018-May-16 19:23N 45°50' W 073°17'0 0.0
2018-May-16 18:56N 45°50' W 073°17'0 0.0
2018-May-16 18:29N 45°50' W 073°17'0 0.0
2018-May-16 17:56N 45°50' W 073°17'0 0.0
2018-May-16 17:29N 45°50' W 073°17'0 0.0
2018-May-16 16:59N 45°50' W 073°17'0 0.0
2018-May-16 16:26N 45°50' W 073°17'0 0.0
2018-May-16 15:59N 45°50' W 073°17'0 0.0
2018-May-16 15:29N 45°50' W 073°17'0 0.0
2018-May-16 14:59N 45°50' W 073°17'0 0.0
2018-May-16 14:26N 45°50' W 073°17'0 0.0
2018-May-16 13:59N 45°50' W 073°17'0 0.0
2018-May-16 13:29N 45°50' W 073°17'0 0.0
2018-May-16 12:59N 45°50' W 073°17'0 0.0
2018-May-16 12:29N 45°50' W 073°17'0 0.0
2018-May-16 11:56N 45°50' W 073°17'0 0.0
2018-May-16 11:29N 45°50' W 073°17'0 0.0
2018-May-16 10:59N 45°50' W 073°17'0 0.0
2018-May-16 10:26N 45°50' W 073°17'0 0.0
2018-May-16 09:59N 45°50' W 073°17'0 0.0
2018-May-16 09:26N 45°50' W 073°17'0 0.0
2018-May-16 08:47N 45°50' W 073°17'0 0.0
2018-May-16 08:29N 45°50' W 073°17'0 0.0
2018-May-16 07:59N 45°50' W 073°17'0 0.0
2018-May-16 07:14N 45°50' W 073°17'0 0.0
2018-May-16 06:59N 45°50' W 073°17'0 0.0
2018-May-16 06:29N 45°50' W 073°17'0 0.0
2018-May-16 05:59N 45°50' W 073°17'0 0.0
2018-May-16 05:26N 45°50' W 073°17'0 0.0
2018-May-16 04:59N 45°50' W 073°17'0 0.0
2018-May-16 04:26N 45°50' W 073°17'0 0.0
2018-May-16 03:59N 45°50' W 073°17'0 0.0
2018-May-16 03:29N 45°50' W 073°17'0 0.0
2018-May-16 02:59N 45°50' W 073°17'0 0.0
2018-May-16 02:29N 45°50' W 073°17'0 0.0
2018-May-16 01:59N 45°50' W 073°17'0 0.0
2018-May-16 01:23N 45°50' W 073°17'0 0.0
2018-May-16 00:59N 45°50' W 073°17'0 0.0
2018-May-16 00:26N 45°50' W 073°17'0 0.0
2018-May-15 23:59N 45°50' W 073°17'0 0.0
2018-May-15 23:29N 45°50' W 073°17'0 0.0
2018-May-15 22:56N 45°50' W 073°17'0 0.0
2018-May-15 22:26N 45°50' W 073°17'0 0.0
2018-May-15 21:59N 45°50' W 073°17'0 0.0
2018-May-15 21:29N 45°50' W 073°17'0 0.0
2018-May-15 20:50N 45°50' W 073°17'0 0.0
2018-May-15 20:29N 45°50' W 073°17'0 0.0
2018-May-15 19:53N 45°50' W 073°17'0 0.0
2018-May-15 19:26N 45°50' W 073°17'0 0.0
2018-May-15 18:59N 45°50' W 073°17'0 0.0
2018-May-15 18:29N 45°50' W 073°17'0 0.0
2018-May-15 17:56N 45°50' W 073°17'0 0.0
2018-May-15 17:29N 45°50' W 073°17'0 0.0
2018-May-15 16:59N 45°50' W 073°17'0 0.0
2018-May-15 16:29N 45°50' W 073°17'0 0.0
2018-May-15 15:50N 45°50' W 073°17'0 0.0
2018-May-15 15:29N 45°50' W 073°17'0 0.0
2018-May-15 14:56N 45°50' W 073°17'0 0.0
2018-May-15 14:28N 45°50' W 073°17'0 0.0
2018-May-15 13:33N 45°50' W 073°17'0 0.1
2018-May-15 13:30N 45°50' W 073°17'0 0.0
2018-May-15 12:59N 45°50' W 073°17'0 0.0
2018-May-15 12:21N 45°50' W 073°17'0 0.0
2018-May-15 12:00N 45°50' W 073°17'0 0.0
2018-May-15 11:30N 45°50' W 073°17'0 0.0
2018-May-15 10:53N 45°50' W 073°17'0 0.0
2018-May-15 10:30N 45°50' W 073°17'0 0.0
2018-May-15 10:00N 45°50' W 073°17'0 0.0
2018-May-15 09:21N 45°50' W 073°17'0 0.0
2018-May-15 09:00N 45°50' W 073°17'0 0.0
2018-May-15 08:30N 45°50' W 073°17'0 0.6
2018-May-15 08:00N 45°50' W 073°17'2 4.0
2018-May-15 07:30N 45°52' W 073°16'4 8.6
2018-May-15 07:00N 45°56' W 073°13'4 9.0
2018-May-15 06:30N 46°00' W 073°11'4 8.5
2018-May-15 06:00N 46°03' W 073°07'90 8.8
2018-May-14 19:43N 46°48' W 071°13'2 9.0
2018-May-14 19:30N 46°49' W 071°11'  

Dump ship's entire track history